createdAt,value
2023-05-18T00:00:01.895Z,93897.72
2023-05-18T00:02:30.638Z,93900.84
2023-05-18T00:05:03.395Z,93895.28
2023-05-18T00:07:35.472Z,93890.28
2023-05-18T00:10:04.197Z,93891.53
2023-05-18T00:12:32.438Z,93878.78
2023-05-18T00:15:00.775Z,93898.81
2023-05-18T00:17:29.434Z,93866.59
2023-05-18T00:20:00.458Z,93886.53
2023-05-18T00:22:29.135Z,93883.69
2023-05-18T00:24:58.700Z,93860.19
2023-05-18T00:27:27.489Z,93876.44
2023-05-18T00:29:55.700Z,93882.03
2023-05-18T00:32:23.878Z,93883.56
2023-05-18T00:34:52.330Z,93880.31
2023-05-18T00:37:21.059Z,93878.91
2023-05-18T00:39:49.216Z,93885.75
2023-05-18T00:42:17.444Z,93859.28
2023-05-18T00:44:46.106Z,93879.41
2023-05-18T00:47:15.286Z,93866.22
2023-05-18T00:49:43.945Z,93848.41
2023-05-18T00:52:12.591Z,93884.06
2023-05-18T00:54:41.273Z,93871.84
2023-05-18T00:57:09.798Z,93873.41
2023-05-18T00:59:38.918Z,93864.88
2023-05-18T01:02:08.336Z,93883.81
2023-05-18T01:04:39.402Z,93867.22
2023-05-18T01:07:07.850Z,93895.59
2023-05-18T01:09:36.781Z,93867.66
2023-05-18T01:12:27.641Z,93892.78
2023-05-18T01:15:06.408Z,93868.44
2023-05-18T01:17:56.655Z,93896.50
2023-05-18T01:20:40.966Z,93896.97
2023-05-18T01:23:27.303Z,93873.19
2023-05-18T01:25:55.570Z,93896.59
2023-05-18T01:28:33.604Z,93903.69
2023-05-18T01:31:02.670Z,93900.81
2023-05-18T01:33:31.275Z,93901.13
2023-05-18T01:35:59.931Z,93903.53
2023-05-18T01:38:29.819Z,93906.94
2023-05-18T01:41:15.417Z,93904.91
2023-05-18T01:43:51.928Z,93906.03
2023-05-18T01:46:43.629Z,93909.84
2023-05-18T01:49:37.912Z,93910.00
2023-05-18T01:52:13.483Z,93897.84
2023-05-18T01:54:46.194Z,93908.16
2023-05-18T01:57:15.639Z,93923.44
2023-05-18T01:59:44.994Z,93928.22
2023-05-18T02:02:14.115Z,93925.78
2023-05-18T02:04:42.460Z,93938.22
2023-05-18T02:07:11.212Z,93935.47
2023-05-18T02:09:40.159Z,93943.53
2023-05-18T02:12:08.868Z,93940.13
2023-05-18T02:14:37.553Z,93949.00
2023-05-18T02:17:08.563Z,93951.16
2023-05-18T02:19:39.789Z,93957.72
2023-05-18T02:22:09.625Z,93955.28
2023-05-18T02:24:38.210Z,93956.16
2023-05-18T02:27:08.187Z,93956.00
2023-05-18T02:29:36.987Z,93957.16
2023-05-18T02:32:06.242Z,93959.34
2023-05-18T02:34:37.182Z,93968.97
2023-05-18T02:37:06.687Z,93969.38
2023-05-18T02:39:35.297Z,93977.63
2023-05-18T02:42:04.099Z,93978.50
2023-05-18T02:44:32.930Z,93968.78
2023-05-18T02:47:01.773Z,93981.25
2023-05-18T02:49:30.495Z,93959.28
2023-05-18T02:51:59.168Z,93962.75
2023-05-18T02:54:27.792Z,93980.72
2023-05-18T02:56:58.270Z,93980.38
2023-05-18T02:59:26.956Z,93982.81
2023-05-18T03:01:55.638Z,93977.38
2023-05-18T03:04:27.680Z,93992.69
2023-05-18T03:06:58.644Z,94006.00
2023-05-18T03:09:27.922Z,94003.16
2023-05-18T03:11:57.431Z,94010.03
2023-05-18T03:14:26.115Z,94001.31
2023-05-18T03:16:55.384Z,94020.72
2023-05-18T03:19:24.142Z,94006.59
2023-05-18T03:21:52.860Z,94029.31
2023-05-18T03:24:21.819Z,94033.38
2023-05-18T03:26:50.443Z,94039.53
2023-05-18T03:29:20.046Z,94043.31
2023-05-18T03:31:49.373Z,94049.38
2023-05-18T03:34:18.108Z,94062.28
2023-05-18T03:36:48.764Z,94056.94
2023-05-18T03:39:18.407Z,94056.06
2023-05-18T03:41:47.410Z,94051.25
2023-05-18T03:44:16.178Z,94042.44
2023-05-18T03:46:44.939Z,94067.25
2023-05-18T03:49:13.943Z,94045.19
2023-05-18T03:51:42.621Z,94078.56
2023-05-18T03:54:11.259Z,94082.00
2023-05-18T03:56:39.395Z,94051.63
2023-05-18T03:59:08.065Z,94077.97
2023-05-18T04:01:36.559Z,94089.31
2023-05-18T04:04:05.121Z,94060.72
2023-05-18T04:06:33.521Z,94094.63
2023-05-18T04:09:05.998Z,94101.44
2023-05-18T04:11:34.540Z,94099.94
2023-05-18T04:14:03.153Z,94099.72
2023-05-18T04:16:32.538Z,94076.31
2023-05-18T04:19:01.872Z,94111.75
2023-05-18T04:21:36.615Z,94091.44
2023-05-18T04:24:07.051Z,94082.59
2023-05-18T04:26:37.634Z,94115.97
2023-05-18T04:29:09.088Z,94096.69
2023-05-18T04:31:38.661Z,94125.59
2023-05-18T04:34:08.375Z,94124.03
2023-05-18T04:36:37.186Z,94129.50
2023-05-18T04:39:09.097Z,94100.56
2023-05-18T04:41:37.748Z,94129.75
2023-05-18T04:44:06.425Z,94134.41
2023-05-18T04:46:35.956Z,94131.03
2023-05-18T04:49:05.032Z,94131.53
2023-05-18T04:51:35.923Z,94135.66
2023-05-18T04:54:04.765Z,94126.81
2023-05-18T04:56:33.408Z,94136.16
2023-05-18T04:59:01.715Z,94123.81
2023-05-18T05:01:30.583Z,94131.34
2023-05-18T05:03:59.829Z,94140.16
2023-05-18T05:06:28.684Z,94136.47
2023-05-18T05:08:57.488Z,94133.56
2023-05-18T05:11:26.157Z,94129.31
2023-05-18T05:13:55.118Z,94138.38
2023-05-18T05:16:23.826Z,94146.97
2023-05-18T05:18:52.622Z,94129.44
2023-05-18T05:21:20.990Z,94143.72
2023-05-18T05:23:50.009Z,94146.59
2023-05-18T05:26:18.904Z,94145.19
2023-05-18T05:28:47.214Z,94113.81
2023-05-18T05:31:16.059Z,94140.13
2023-05-18T05:33:45.903Z,94116.59
2023-05-18T05:36:14.554Z,94149.91
2023-05-18T05:38:43.759Z,94147.75
2023-05-18T05:41:12.582Z,94156.53
2023-05-18T05:43:41.271Z,94160.06
2023-05-18T05:46:09.931Z,94167.53
2023-05-18T05:48:37.956Z,94164.16
2023-05-18T05:51:06.643Z,94165.13
2023-05-18T05:53:35.333Z,94165.25
2023-05-18T05:56:04.978Z,94136.44
2023-05-18T05:58:33.215Z,94148.56
2023-05-18T06:01:05.324Z,94144.66
2023-05-18T06:03:35.959Z,94164.44
2023-05-18T06:06:04.940Z,94170.63
2023-05-18T06:08:36.311Z,94173.59
2023-05-18T06:11:05.704Z,94174.81
2023-05-18T06:13:34.489Z,94173.47
2023-05-18T06:16:03.242Z,94159.84
2023-05-18T06:18:32.176Z,94147.78
2023-05-18T06:21:00.865Z,94153.91
2023-05-18T06:23:29.512Z,94194.50
2023-05-18T06:25:57.822Z,94147.13
2023-05-18T06:28:26.441Z,94160.63
2023-05-18T06:30:55.318Z,94192.72
2023-05-18T06:33:24.958Z,94189.41
2023-05-18T06:35:53.662Z,94180.78
2023-05-18T06:38:22.372Z,94206.53
2023-05-18T06:40:51.040Z,94208.25
2023-05-18T06:43:19.365Z,94227.88
2023-05-18T06:45:48.542Z,94220.50
2023-05-18T06:48:17.133Z,94229.28
2023-05-18T06:50:45.794Z,94225.81
2023-05-18T06:53:14.943Z,94225.50
2023-05-18T06:55:43.706Z,94233.75
2023-05-18T06:58:12.363Z,94237.44
2023-05-18T07:00:40.983Z,94229.25
2023-05-18T07:03:09.210Z,94236.84
2023-05-18T07:05:39.348Z,94244.94
2023-05-18T07:08:08.282Z,94242.59
2023-05-18T07:10:39.228Z,94235.75
2023-05-18T07:13:07.883Z,94185.03
2023-05-18T07:15:36.588Z,94246.91
2023-05-18T07:18:05.375Z,94254.25
2023-05-18T07:20:33.700Z,94255.16
2023-05-18T07:23:02.806Z,94245.84
2023-05-18T07:25:31.820Z,94266.66
2023-05-18T07:28:00.665Z,94265.09
2023-05-18T07:30:29.359Z,94265.00
2023-05-18T07:32:59.060Z,94266.13
2023-05-18T07:35:28.515Z,94274.34
2023-05-18T07:37:57.278Z,94272.34
2023-05-18T07:40:25.628Z,94277.72
2023-05-18T07:42:54.313Z,94281.13
2023-05-18T07:45:23.143Z,94283.03
2023-05-18T07:47:52.118Z,94283.03
2023-05-18T07:50:20.735Z,94291.00
2023-05-18T07:52:49.522Z,94290.31
2023-05-18T07:55:19.000Z,94285.72
2023-05-18T07:57:47.662Z,94285.38
2023-05-18T08:00:18.161Z,94286.84
2023-05-18T08:02:47.669Z,94289.53
2023-05-18T08:05:16.543Z,94290.97
2023-05-18T08:07:45.140Z,94278.06
2023-05-18T08:10:13.813Z,94286.94
2023-05-18T08:12:42.538Z,94296.69
2023-05-18T08:15:12.145Z,94262.75
2023-05-18T08:17:41.101Z,94293.88
2023-05-18T08:20:11.719Z,94285.66
2023-05-18T08:22:41.335Z,94287.47
2023-05-18T08:25:11.668Z,94263.16
2023-05-18T08:27:39.646Z,94291.16
2023-05-18T08:30:08.884Z,94288.69
2023-05-18T08:32:38.579Z,94294.53
2023-05-18T08:35:07.283Z,94277.31
2023-05-18T08:37:38.828Z,94298.56
2023-05-18T08:40:12.954Z,94291.81
2023-05-18T08:42:50.510Z,94288.66
2023-05-18T08:45:53.830Z,94259.44
2023-05-18T08:48:27.207Z,94256.28
2023-05-18T08:50:59.727Z,94286.63
2023-05-18T08:53:29.028Z,94287.28
2023-05-18T08:55:59.695Z,94292.09
2023-05-18T08:58:36.962Z,94286.81
2023-05-18T09:01:07.156Z,94291.03
2023-05-18T09:03:36.423Z,94268.53
2023-05-18T09:06:06.149Z,94298.88
2023-05-18T09:08:35.986Z,94288.34
2023-05-18T09:11:04.773Z,94290.56
2023-05-18T09:13:33.441Z,94285.28
2023-05-18T09:16:01.892Z,94292.66
2023-05-18T09:18:30.630Z,94290.94
2023-05-18T09:20:59.339Z,94286.44
2023-05-18T09:23:28.047Z,94278.69
2023-05-18T09:25:57.308Z,94248.66
2023-05-18T09:28:35.428Z,94248.66
2023-05-18T09:31:05.374Z,94278.88
2023-05-18T09:33:41.760Z,94287.16
2023-05-18T09:36:11.749Z,94290.63
2023-05-18T09:38:47.839Z,94278.38
2023-05-18T09:41:18.554Z,94281.53
2023-05-18T09:43:50.127Z,94285.19
2023-05-18T09:46:19.748Z,94291.91
2023-05-18T09:48:52.543Z,94284.81
2023-05-18T09:51:23.420Z,94279.13
2023-05-18T09:54:00.204Z,94282.56
2023-05-18T09:56:29.113Z,94266.47
2023-05-18T09:58:57.776Z,94262.09
2023-05-18T10:01:26.524Z,94294.03
2023-05-18T10:04:03.969Z,94271.97
2023-05-18T10:06:33.394Z,94304.41
2023-05-18T10:09:06.091Z,94300.47
2023-05-18T10:11:35.277Z,94303.91
2023-05-18T10:14:04.889Z,94305.31
2023-05-18T10:16:34.435Z,94304.75
2023-05-18T10:19:05.219Z,94306.75
2023-05-18T10:21:36.369Z,94306.81
2023-05-18T10:24:06.798Z,94309.03
2023-05-18T10:26:40.501Z,94315.97
2023-05-18T10:29:09.086Z,94287.59
2023-05-18T10:31:40.649Z,94318.19
2023-05-18T10:34:11.888Z,94315.88
2023-05-18T10:36:41.053Z,94326.16
2023-05-18T10:39:11.766Z,94292.50
2023-05-18T10:41:43.989Z,94319.72
2023-05-18T10:44:12.935Z,94303.56
2023-05-18T10:46:43.073Z,94318.44
2023-05-18T10:49:16.342Z,94312.13
2023-05-18T10:51:48.838Z,94316.25
2023-05-18T10:54:17.468Z,94322.69
2023-05-18T10:56:49.619Z,94316.06
2023-05-18T10:59:20.316Z,94264.00
2023-05-18T11:01:51.320Z,94316.69
2023-05-18T11:04:31.052Z,94321.47
2023-05-18T11:07:03.570Z,94282.41
2023-05-18T11:09:33.492Z,94291.66
2023-05-18T11:12:02.346Z,94316.00
2023-05-18T11:14:34.204Z,94275.34
2023-05-18T11:17:19.042Z,94321.78
2023-05-18T11:20:07.145Z,94327.13
2023-05-18T11:22:44.034Z,94316.69
2023-05-18T11:25:37.435Z,94317.13
2023-05-18T11:28:08.960Z,94309.84
2023-05-18T11:30:42.005Z,94311.97
2023-05-18T11:33:11.091Z,94315.38
2023-05-18T11:36:10.591Z,94316.53
2023-05-18T11:39:07.492Z,94311.97
2023-05-18T11:41:40.323Z,94299.50
2023-05-18T11:44:17.805Z,94300.81
2023-05-18T11:47:11.699Z,94304.38
2023-05-18T11:49:45.130Z,94311.91
2023-05-18T11:52:29.970Z,94304.16
2023-05-18T11:55:00.522Z,94301.75
2023-05-18T11:57:44.689Z,94307.75
2023-05-18T12:00:14.140Z,94311.00
2023-05-18T12:02:48.293Z,94299.13
2023-05-18T12:05:17.489Z,94286.38
2023-05-18T12:07:53.456Z,94276.50
2023-05-18T12:10:23.069Z,94294.56
2023-05-18T12:12:54.634Z,94243.72
2023-05-18T12:15:24.798Z,94297.25
2023-05-18T12:17:55.009Z,94295.47
2023-05-18T12:20:29.673Z,94299.28
2023-05-18T12:22:58.952Z,94296.44
2023-05-18T12:25:29.725Z,94297.75
2023-05-18T12:27:58.615Z,94262.56
2023-05-18T12:30:47.086Z,94287.50
2023-05-18T12:33:15.753Z,94292.03
2023-05-18T12:35:44.181Z,94271.91
2023-05-18T12:38:13.164Z,94295.13
2023-05-18T12:40:51.705Z,94297.06
2023-05-18T12:43:20.494Z,94299.00
2023-05-18T12:45:48.869Z,94297.34
2023-05-18T12:48:17.371Z,94294.72
2023-05-18T12:50:50.286Z,94296.88
2023-05-18T12:53:19.893Z,94301.81
2023-05-18T12:56:05.567Z,94269.03
2023-05-18T12:58:33.986Z,94302.09
2023-05-18T13:01:12.743Z,94296.69
2023-05-18T13:03:42.366Z,94300.19
2023-05-18T13:06:11.176Z,94295.59
2023-05-18T13:08:39.973Z,94267.69
2023-05-18T13:11:14.458Z,94300.13
2023-05-18T13:14:13.806Z,94298.84
2023-05-18T13:16:47.271Z,94292.25
2023-05-18T13:19:21.844Z,94300.13
2023-05-18T13:21:57.518Z,94270.47
2023-05-18T13:24:26.266Z,94306.03
2023-05-18T13:26:54.955Z,94312.69
2023-05-18T13:29:23.597Z,94287.84
2023-05-18T13:31:52.283Z,94304.72
2023-05-18T13:34:20.542Z,94312.06
2023-05-18T13:36:49.186Z,94308.19
2023-05-18T13:39:19.093Z,94313.91
2023-05-18T13:41:47.721Z,94319.56
2023-05-18T13:44:17.439Z,94282.94
2023-05-18T13:46:45.739Z,94305.00
2023-05-18T13:49:14.274Z,94309.72
2023-05-18T13:51:42.536Z,94303.34
2023-05-18T13:54:11.323Z,94301.66
2023-05-18T13:56:40.008Z,94296.94
2023-05-18T13:59:09.277Z,94308.53
2023-05-18T14:01:37.791Z,94303.13
2023-05-18T14:04:06.207Z,94302.00
2023-05-18T14:06:34.654Z,94271.56
2023-05-18T14:09:03.272Z,94306.97
2023-05-18T14:11:35.525Z,94300.00
2023-05-18T14:14:04.492Z,94296.25
2023-05-18T14:16:33.330Z,94295.22
2023-05-18T14:19:02.118Z,94295.47
2023-05-18T14:21:30.830Z,94273.75
2023-05-18T14:23:59.026Z,94304.84
2023-05-18T14:26:28.070Z,94305.84
2023-05-18T14:28:56.785Z,94308.75
2023-05-18T14:31:24.942Z,94308.44
2023-05-18T14:33:53.637Z,94285.25
2023-05-18T14:36:22.538Z,94295.59
2023-05-18T14:38:51.222Z,94309.13
2023-05-18T14:41:19.844Z,94282.94
2023-05-18T14:43:48.711Z,94312.47
2023-05-18T14:46:17.469Z,94292.13
2023-05-18T14:48:45.749Z,94314.72
2023-05-18T14:51:14.956Z,94312.84
2023-05-18T14:53:43.881Z,94314.50
2023-05-18T14:56:13.555Z,94294.84
2023-05-18T14:58:41.738Z,94290.53
2023-05-18T15:01:10.503Z,94310.81
2023-05-18T15:03:39.221Z,94314.41
2023-05-18T15:06:08.000Z,94306.72
2023-05-18T15:08:36.884Z,94313.16
2023-05-18T15:11:05.149Z,94306.84
2023-05-18T15:13:33.739Z,94307.53
2023-05-18T15:16:03.556Z,94305.66
2023-05-18T15:18:32.435Z,94285.63
2023-05-18T15:21:01.080Z,94293.97
2023-05-18T15:23:29.794Z,94301.91
2023-05-18T15:25:58.478Z,94307.97
2023-05-18T15:28:26.848Z,94322.41
2023-05-18T15:30:55.486Z,94322.06
2023-05-18T15:33:24.153Z,94320.06
2023-05-18T15:35:52.395Z,94304.25
2023-05-18T15:38:20.525Z,94327.47
2023-05-18T15:40:49.339Z,94336.38
2023-05-18T15:43:17.964Z,94337.38
2023-05-18T15:45:46.590Z,94323.81
2023-05-18T15:48:14.867Z,94304.09
2023-05-18T15:50:44.195Z,94334.16
2023-05-18T15:53:12.991Z,94334.72
2023-05-18T15:55:41.676Z,94329.81
2023-05-18T15:58:10.279Z,94314.44
2023-05-18T16:00:39.112Z,94304.47
2023-05-18T16:03:07.480Z,94303.94
2023-05-18T16:05:36.244Z,94325.06
2023-05-18T16:08:07.892Z,94324.16
2023-05-18T16:10:36.483Z,94295.13
2023-05-18T16:13:06.948Z,94324.13
2023-05-18T16:15:36.388Z,94297.97
2023-05-18T16:18:05.090Z,94314.84
2023-05-18T16:20:34.376Z,94318.44
2023-05-18T16:23:02.731Z,94325.09
2023-05-18T16:25:31.157Z,94323.41
2023-05-18T16:27:59.097Z,94314.72
2023-05-18T16:30:27.919Z,94292.66
2023-05-18T16:32:56.650Z,94316.56
2023-05-18T16:35:25.819Z,94293.56
2023-05-18T16:37:54.539Z,94288.94
2023-05-18T16:40:23.223Z,94305.00
2023-05-18T16:42:52.899Z,94312.81
2023-05-18T16:45:21.350Z,94319.06
2023-05-18T16:47:50.070Z,94316.94
2023-05-18T16:50:18.486Z,94319.53
2023-05-18T16:52:46.704Z,94330.00
2023-05-18T16:55:15.295Z,94303.72
2023-05-18T16:57:44.881Z,94309.19
2023-05-18T17:00:14.163Z,94295.91
2023-05-18T17:02:43.003Z,94288.53
2023-05-18T17:05:11.847Z,94306.47
2023-05-18T17:07:40.358Z,94314.00
2023-05-18T17:10:09.449Z,94282.66
2023-05-18T17:12:39.210Z,94274.28
2023-05-18T17:15:08.038Z,94280.31
2023-05-18T17:17:36.730Z,94293.94
2023-05-18T17:20:08.060Z,94291.00
2023-05-18T17:22:37.301Z,94278.19
2023-05-18T17:25:07.313Z,94290.78
2023-05-18T17:27:36.049Z,94285.53
2023-05-18T17:30:04.828Z,94272.16
2023-05-18T17:32:33.695Z,94285.81
2023-05-18T17:35:03.154Z,94260.75
2023-05-18T17:37:31.329Z,94258.84
2023-05-18T17:40:00.886Z,94282.19
2023-05-18T17:42:29.035Z,94272.56
2023-05-18T17:44:57.648Z,94281.03
2023-05-18T17:47:26.399Z,94275.59
2023-05-18T17:49:55.056Z,94274.72
2023-05-18T17:52:23.609Z,94276.91
2023-05-18T17:54:53.638Z,94236.53
2023-05-18T17:57:23.705Z,94270.91
2023-05-18T17:59:52.451Z,94255.41
2023-05-18T18:02:21.087Z,94256.88
2023-05-18T18:04:50.267Z,94249.44
2023-05-18T18:07:18.950Z,94239.34
2023-05-18T18:09:47.255Z,94222.31
2023-05-18T18:12:16.748Z,94259.09
2023-05-18T18:14:45.415Z,94267.19
2023-05-18T18:17:14.165Z,94239.81
2023-05-18T18:19:42.819Z,94259.31
2023-05-18T18:22:11.563Z,94266.97
2023-05-18T18:24:40.316Z,94254.94
2023-05-18T18:27:09.110Z,94249.41
2023-05-18T18:29:37.759Z,94242.38
2023-05-18T18:32:06.820Z,94248.31
2023-05-18T18:34:35.430Z,94248.22
2023-05-18T18:37:04.143Z,94232.72
2023-05-18T18:39:32.851Z,94231.75
2023-05-18T18:42:01.490Z,94241.91
2023-05-18T18:44:30.172Z,94239.34
2023-05-18T18:46:58.190Z,94236.53
2023-05-18T18:49:27.155Z,94218.53
2023-05-18T18:51:55.831Z,94227.66
2023-05-18T18:54:24.474Z,94227.56
2023-05-18T18:56:53.269Z,94201.38
2023-05-18T18:59:22.033Z,94223.88
2023-05-18T19:01:50.788Z,94223.16
2023-05-18T19:04:20.954Z,94215.38
2023-05-18T19:06:49.160Z,94229.31
2023-05-18T19:09:17.859Z,94188.94
2023-05-18T19:11:46.042Z,94194.78
2023-05-18T19:14:14.541Z,94222.38
2023-05-18T19:16:43.161Z,94217.72
2023-05-18T19:19:12.052Z,94208.50
2023-05-18T19:21:40.745Z,94200.03
2023-05-18T19:24:10.623Z,94187.44
2023-05-18T19:26:39.224Z,94196.78
2023-05-18T19:29:07.371Z,94201.78
2023-05-18T19:31:36.968Z,94175.25
2023-05-18T19:34:05.252Z,94184.44
2023-05-18T19:36:33.987Z,94181.72
2023-05-18T19:39:02.696Z,94167.69
2023-05-18T19:41:31.677Z,94179.34
2023-05-18T19:44:00.329Z,94152.69
2023-05-18T19:46:29.064Z,94174.50
2023-05-18T19:48:57.911Z,94153.84
2023-05-18T19:51:26.616Z,94173.72
2023-05-18T19:53:55.301Z,94145.91
2023-05-18T19:56:23.985Z,94174.13
2023-05-18T19:58:53.112Z,94175.69
2023-05-18T20:01:25.518Z,94177.53
2023-05-18T20:03:54.436Z,94173.53
2023-05-18T20:06:23.216Z,94171.41
2023-05-18T20:08:51.806Z,94163.78
2023-05-18T20:11:20.079Z,94164.44
2023-05-18T20:13:48.843Z,94148.97
2023-05-18T20:16:17.154Z,94157.28
2023-05-18T20:18:47.124Z,94154.16
2023-05-18T20:21:15.961Z,94143.66
2023-05-18T20:23:44.562Z,94158.56
2023-05-18T20:26:12.834Z,94128.56
2023-05-18T20:28:41.407Z,94148.06
2023-05-18T20:31:10.070Z,94141.72
2023-05-18T20:33:38.360Z,94109.91
2023-05-18T20:36:09.966Z,94132.06
2023-05-18T20:38:39.652Z,94131.66
2023-05-18T20:41:08.966Z,94136.69
2023-05-18T20:43:40.948Z,94128.00
2023-05-18T20:46:11.178Z,94124.66
2023-05-18T20:48:39.783Z,94133.34
2023-05-18T20:51:16.300Z,94124.09
2023-05-18T20:53:45.384Z,94121.00
2023-05-18T20:56:14.224Z,94119.63
2023-05-18T20:58:43.885Z,94117.97
2023-05-18T21:01:12.597Z,94102.41
2023-05-18T21:03:43.905Z,94118.38
2023-05-18T21:06:14.608Z,94106.94
2023-05-18T21:08:43.757Z,94117.06
2023-05-18T21:11:12.257Z,94116.75
2023-05-18T21:13:40.956Z,94111.81
2023-05-18T21:16:10.847Z,94103.28
2023-05-18T21:18:40.490Z,94108.75
2023-05-18T21:21:09.224Z,94097.38
2023-05-18T21:23:37.914Z,94077.88
2023-05-18T21:26:06.754Z,94092.41
2023-05-18T21:28:35.399Z,94089.53
2023-05-18T21:31:04.055Z,94081.88
2023-05-18T21:33:32.800Z,94077.09
2023-05-18T21:36:03.018Z,94082.03
2023-05-18T21:38:31.678Z,94077.78
2023-05-18T21:40:59.898Z,94083.41
2023-05-18T21:43:29.546Z,94076.31
2023-05-18T21:45:58.290Z,94074.72
2023-05-18T21:48:26.945Z,94047.34
2023-05-18T21:50:55.264Z,94067.75
2023-05-18T21:53:23.457Z,94064.50
2023-05-18T21:55:52.422Z,94038.50
2023-05-18T21:58:23.049Z,94056.59
2023-05-18T22:00:52.309Z,94059.66
2023-05-18T22:03:21.118Z,94026.88
2023-05-18T22:05:49.943Z,94054.22
2023-05-18T22:08:18.577Z,94029.75
2023-05-18T22:10:47.725Z,94043.56
2023-05-18T22:13:15.892Z,94037.59
2023-05-18T22:15:44.629Z,94016.78
2023-05-18T22:18:12.637Z,94025.75
2023-05-18T22:20:41.734Z,94032.84
2023-05-18T22:23:10.238Z,94011.22
2023-05-18T22:25:38.785Z,94026.44
2023-05-18T22:28:07.485Z,94009.00
2023-05-18T22:30:36.986Z,94022.47
2023-05-18T22:33:05.395Z,94022.94
2023-05-18T22:35:33.866Z,94019.75
2023-05-18T22:38:02.555Z,94009.84
2023-05-18T22:40:31.445Z,94018.69
2023-05-18T22:43:00.281Z,93990.41
2023-05-18T22:45:28.501Z,94009.31
2023-05-18T22:47:56.802Z,94007.81
2023-05-18T22:50:25.460Z,94008.94
2023-05-18T22:52:53.762Z,94000.56
2023-05-18T22:55:22.408Z,93997.53
2023-05-18T22:57:51.128Z,93996.44
2023-05-18T23:00:20.528Z,93988.84
2023-05-18T23:02:48.974Z,93985.88
2023-05-18T23:05:18.219Z,93967.81
2023-05-18T23:07:46.650Z,93981.16
2023-05-18T23:10:15.239Z,93986.50
2023-05-18T23:12:43.968Z,93969.13
2023-05-18T23:15:13.073Z,93974.56
2023-05-18T23:17:41.679Z,93958.75
2023-05-18T23:20:12.828Z,93981.72
2023-05-18T23:22:42.394Z,93975.19
2023-05-18T23:25:11.103Z,93971.94
2023-05-18T23:27:39.746Z,93981.84
2023-05-18T23:30:08.831Z,93951.78
2023-05-18T23:32:38.148Z,93955.69
2023-05-18T23:35:07.237Z,93962.19
2023-05-18T23:37:41.874Z,93964.06
2023-05-18T23:40:15.318Z,93956.63
2023-05-18T23:42:43.944Z,93969.97
2023-05-18T23:45:13.158Z,93967.38
2023-05-18T23:47:42.298Z,93963.19
2023-05-18T23:50:11.374Z,93962.19
2023-05-18T23:52:42.907Z,93943.75
2023-05-18T23:55:13.210Z,93951.25
2023-05-18T23:57:42.355Z,93933.56
